Time;durP1;ratioP1;P1;durP2;ratioP2;P2;SDS_P1;SDS_P2;PMS_P1;PMS_P2;Temp;Humidity;BMP_temperature;BMP_pressure;BME280_temperature;BME280_humidity;BME280_pressure;Samples;Min_cycle;Max_cycle;Signal;HPM_P1;HPM_P2
2022/02/27 00:02:16;;;;;;;12.60;3.05;;;1.60;65.20;;;;;;5012406;28;20034;-80
2022/02/27 00:04:42;;;;;;;12.50;3.65;;;1.60;65.60;;;;;;4996431;28;20620;-82
2022/02/27 00:07:07;;;;;;;10.75;2.20;;;1.60;65.50;;;;;;5012529;28;20037;-81
2022/02/27 00:09:33;;;;;;;12.00;3.80;;;1.70;65.40;;;;;;5012411;28;20113;-81
2022/02/27 00:11:59;;;;;;;13.60;3.08;;;1.70;65.50;;;;;;5012966;28;20037;-85
2022/02/27 00:14:25;;;;;;;10.50;2.50;;;1.70;65.50;;;;;;5013208;28;20382;-77
2022/02/27 00:16:50;;;;;;;15.55;3.03;;;1.50;66.40;;;;;;5012612;28;20033;-80
2022/02/27 00:19:16;;;;;;;8.57;2.65;;;1.50;66.80;;;;;;5013468;28;20119;-80
2022/02/27 00:21:43;;;;;;;9.55;2.30;;;1.40;66.50;;;;;;4996492;28;20132;-80
2022/02/27 00:24:10;;;;;;;11.63;3.38;;;1.30;67.10;;;;;;5012338;28;20113;-80
2022/02/27 00:26:35;;;;;;;12.50;3.55;;;1.30;67.50;;;;;;5012094;28;20054;-81
2022/02/27 00:29:02;;;;;;;13.05;2.90;;;1.40;67.40;;;;;;4995834;28;20521;-80
2022/02/27 00:31:28;;;;;;;9.68;2.85;;;1.40;67.10;;;;;;5028854;28;20117;-81
2022/02/27 00:33:54;;;;;;;11.65;2.90;;;1.50;66.90;;;;;;5012328;28;20121;-82
2022/02/27 00:36:19;;;;;;;10.13;2.85;;;1.50;66.70;;;;;;5012257;28;20023;-83
2022/02/27 00:38:45;;;;;;;14.05;3.15;;;1.50;67.20;;;;;;5015912;28;20033;-79
2022/02/27 00:41:11;;;;;;;8.55;2.50;;;1.50;67.30;;;;;;5018692;28;20018;-83
2022/02/27 00:43:36;;;;;;;11.73;3.33;;;1.50;67.10;;;;;;5018311;28;20042;-83
2022/02/27 00:46:04;;;;;;;10.57;3.40;;;1.50;67.10;;;;;;5018433;28;20568;-82
2022/02/27 00:48:30;;;;;;;12.55;3.08;;;1.60;67.00;;;;;;5018942;28;20466;-81
2022/02/27 00:50:55;;;;;;;12.07;3.28;;;1.60;66.80;;;;;;5018802;28;20029;-82
2022/02/27 00:53:21;;;;;;;14.02;3.20;;;1.60;66.80;;;;;;5018105;28;20034;-82
2022/02/27 00:55:47;;;;;;;8.63;2.72;;;1.60;66.60;;;;;;5018518;28;20021;-81
2022/02/27 00:58:13;;;;;;;11.55;3.72;;;1.70;66.70;;;;;;5018590;28;20109;-83
2022/02/27 01:00:39;;;;;;;15.85;3.33;;;1.60;66.90;;;;;;5018701;28;20112;-80
2022/02/27 01:03:04;;;;;;;10.32;2.88;;;1.60;67.40;;;;;;5018603;28;20398;-81
2022/02/27 01:05:30;;;;;;;11.32;3.05;;;1.50;67.60;;;;;;5018309;28;20026;-83
2022/02/27 01:07:55;;;;;;;12.90;3.13;;;1.50;68.00;;;;;;5019175;28;20042;-80
2022/02/27 01:10:21;;;;;;;18.38;3.28;;;1.40;68.30;;;;;;5019474;28;20057;-84
2022/02/27 01:12:48;;;;;;;6.75;2.28;;;1.40;69.20;;;;;;5019139;28;20083;-80
2022/02/27 01:15:14;;;;;;;12.63;2.83;;;1.40;69.80;;;;;;5018766;28;20504;-82
2022/02/27 01:17:40;;;;;;;11.05;3.25;;;1.40;69.90;;;;;;5018562;28;20060;-82
2022/02/27 01:20:07;;;;;;;8.50;2.53;;;1.40;69.80;;;;;;5018167;28;20057;-84
2022/02/27 01:22:34;;;;;;;8.90;2.75;;;1.40;69.80;;;;;;5019401;28;20085;-82
2022/02/27 01:25:01;;;;;;;10.93;3.38;;;1.40;69.90;;;;;;5001654;28;20026;-81
2022/02/27 01:27:27;;;;;;;8.57;3.00;;;1.50;69.90;;;;;;5018658;28;20028;-82
2022/02/27 01:29:52;;;;;;;10.70;2.20;;;1.40;70.60;;;;;;5017958;28;20053;-83
2022/02/27 01:32:18;;;;;;;10.98;2.80;;;1.40;69.70;;;;;;5018484;28;20041;-83
2022/02/27 01:34:44;;;;;;;8.50;2.42;;;1.50;69.80;;;;;;5018383;28;20049;-82
2022/02/27 01:37:09;;;;;;;12.02;3.03;;;1.50;70.10;;;;;;5018277;28;20029;-83
2022/02/27 01:39:35;;;;;;;9.70;2.22;;;1.50;70.10;;;;;;5018895;28;20049;-79
2022/02/27 01:42:01;;;;;;;16.73;2.17;;;1.60;70.10;;;;;;5018664;28;20456;-84
2022/02/27 01:44:26;;;;;;;7.82;2.83;;;1.50;70.10;;;;;;5018457;28;20402;-83
2022/02/27 01:46:57;;;;;;;14.00;2.80;;;1.60;70.20;;;;;;5018118;28;20018;-83
2022/02/27 01:49:23;;;;;;;9.10;2.67;;;1.60;70.10;;;;;;5018365;28;20030;-81
2022/02/27 01:51:49;;;;;;;9.30;2.25;;;1.60;70.00;;;;;;5014814;28;20434;-77
2022/02/27 01:54:16;;;;;;;15.80;3.15;;;1.60;70.00;;;;;;5014880;28;20064;-81
2022/02/27 01:56:42;;;;;;;10.13;2.53;;;1.50;70.20;;;;;;5014634;28;20026;-83
2022/02/27 01:59:08;;;;;;;9.45;2.50;;;1.60;70.00;;;;;;5015448;28;20026;-82
2022/02/27 02:01:33;;;;;;;10.27;2.58;;;1.60;69.90;;;;;;5014564;28;20036;-81
2022/02/27 02:03:59;;;;;;;10.80;2.78;;;1.50;70.20;;;;;;5015056;28;20135;-83
2022/02/27 02:06:25;;;;;;;13.02;2.55;;;1.50;69.80;;;;;;5014074;28;20457;-82
2022/02/27 02:08:51;;;;;;;17.00;3.38;;;1.50;69.80;;;;;;5014657;28;20076;-83
2022/02/27 02:11:17;;;;;;;11.93;4.13;;;1.50;70.00;;;;;;5014905;28;20041;-83
2022/02/27 02:13:44;;;;;;;10.85;2.63;;;1.40;70.10;;;;;;5018656;28;20442;-82
2022/02/27 02:16:09;;;;;;;14.27;2.88;;;1.50;70.20;;;;;;5020307;28;20022;-83
2022/02/27 02:18:38;;;;;;;10.10;3.20;;;1.40;70.10;;;;;;5016048;28;20498;-83
2022/02/27 02:21:04;;;;;;;14.20;2.72;;;1.40;70.30;;;;;;5014592;28;20494;-82
2022/02/27 02:23:30;;;;;;;11.20;2.65;;;1.40;70.50;;;;;;5014482;28;20029;-83
2022/02/27 02:25:55;;;;;;;8.90;2.67;;;1.40;70.70;;;;;;5014919;28;20517;-80
2022/02/27 02:28:21;;;;;;;11.48;2.50;;;1.40;70.70;;;;;;5014245;28;20042;-83
2022/02/27 02:30:47;;;;;;;11.48;2.95;;;1.40;70.90;;;;;;5014201;28;20072;-83
2022/02/27 02:33:13;;;;;;;10.63;2.40;;;1.40;70.80;;;;;;5014057;28;20402;-82
2022/02/27 02:35:39;;;;;;;9.75;2.58;;;1.40;70.60;;;;;;5014294;28;20032;-83
2022/02/27 02:38:06;;;;;;;10.90;2.53;;;1.40;70.50;;;;;;5014521;28;20040;-81
2022/02/27 02:40:31;;;;;;;9.80;2.70;;;1.40;70.40;;;;;;5014145;28;20029;-82
2022/02/27 02:42:58;;;;;;;7.13;2.42;;;1.40;70.60;;;;;;5014252;28;20030;-82
2022/02/27 02:45:24;;;;;;;8.13;2.35;;;1.40;70.20;;;;;;5013979;28;20394;-81
2022/02/27 02:47:55;;;;;;;8.27;2.58;;;1.50;70.10;;;;;;5014043;28;20125;-83
2022/02/27 02:50:22;;;;;;;9.25;2.90;;;1.50;69.50;;;;;;5014225;28;20026;-82
2022/02/27 02:52:48;;;;;;;9.57;2.58;;;1.40;69.20;;;;;;5013940;28;20497;-82
2022/02/27 02:55:16;;;;;;;9.70;2.20;;;1.50;69.00;;;;;;4997548;28;20037;-82
2022/02/27 02:57:43;;;;;;;7.70;2.60;;;1.40;68.80;;;;;;5014018;28;20030;-82
2022/02/27 03:00:11;;;;;;;9.93;2.90;;;1.40;69.30;;;;;;5014221;28;20022;-85
2022/02/27 03:02:38;;;;;;;15.20;3.22;;;1.40;69.70;;;;;;5013838;28;20029;-81
2022/02/27 03:05:05;;;;;;;10.57;2.60;;;1.40;69.50;;;;;;5014147;28;20053;-83
2022/02/27 03:07:32;;;;;;;10.77;3.03;;;1.40;70.00;;;;;;5013489;28;20492;-82
2022/02/27 03:09:59;;;;;;;14.48;4.32;;;1.40;69.50;;;;;;5014060;28;20049;-85
2022/02/27 03:12:26;;;;;;;12.32;3.28;;;1.40;70.30;;;;;;4997647;28;20057;-84
2022/02/27 03:14:52;;;;;;;9.38;2.97;;;1.30;69.60;;;;;;5014138;28;20022;-84
2022/02/27 03:17:17;;;;;;;16.65;4.00;;;1.20;70.10;;;;;;5014539;28;20044;-85
2022/02/27 03:19:43;;;;;;;8.10;2.55;;;1.10;70.00;;;;;;5013609;28;20112;-85
2022/02/27 03:22:09;;;;;;;10.40;2.67;;;1.20;69.70;;;;;;5013871;28;20022;-84
2022/02/27 03:24:34;;;;;;;9.10;2.80;;;1.20;69.40;;;;;;5013452;28;20029;-82
2022/02/27 03:27:00;;;;;;;9.40;2.63;;;1.00;69.00;;;;;;5013563;28;20041;-84
2022/02/27 03:29:25;;;;;;;12.88;2.60;;;1.10;69.20;;;;;;5013070;28;20049;-84
2022/02/27 03:31:51;;;;;;;14.38;2.70;;;1.10;69.20;;;;;;5013077;28;20124;-82
2022/02/27 03:34:16;;;;;;;12.82;2.67;;;1.00;69.60;;;;;;5013606;28;20037;-81
2022/02/27 03:36:42;;;;;;;11.45;2.42;;;1.00;69.70;;;;;;5013512;28;20491;-82
2022/02/27 03:39:08;;;;;;;6.45;2.00;;;0.90;70.60;;;;;;5013081;28;20022;-82
2022/02/27 03:41:33;;;;;;;11.30;2.38;;;1.00;70.60;;;;;;5013267;28;20022;-83
2022/02/27 03:43:59;;;;;;;13.43;2.65;;;1.00;70.40;;;;;;5013569;28;20029;-85
2022/02/27 03:46:24;;;;;;;13.00;3.38;;;0.90;70.50;;;;;;5013325;28;20026;-83
2022/02/27 03:48:50;;;;;;;8.65;2.80;;;1.00;70.50;;;;;;5013719;28;20475;-85
2022/02/27 03:51:16;;;;;;;9.13;2.58;;;1.00;70.20;;;;;;5013357;28;20441;-85
2022/02/27 03:53:41;;;;;;;9.05;2.97;;;0.80;70.50;;;;;;5013096;28;20038;-84
2022/02/27 03:56:07;;;;;;;11.60;2.75;;;0.80;71.00;;;;;;5013210;28;20499;-84
2022/02/27 03:58:32;;;;;;;6.22;2.33;;;0.80;71.40;;;;;;5013345;28;20029;-84
2022/02/27 04:00:58;;;;;;;12.85;2.58;;;0.80;71.40;;;;;;5013469;28;20097;-86
2022/02/27 04:03:24;;;;;;;12.68;2.78;;;0.90;71.60;;;;;;5012343;28;20030;-82
2022/02/27 04:05:49;;;;;;;8.50;2.55;;;0.90;71.70;;;;;;5012472;28;20023;-81
2022/02/27 04:08:15;;;;;;;12.95;3.53;;;0.80;71.80;;;;;;5012411;28;20037;-81
2022/02/27 04:10:42;;;;;;;9.38;3.22;;;0.80;72.20;;;;;;5012479;28;20029;-81
2022/02/27 04:13:08;;;;;;;10.85;2.53;;;0.70;72.40;;;;;;5011740;28;20121;-82
2022/02/27 04:15:33;;;;;;;10.63;3.38;;;0.50;72.90;;;;;;5012339;28;20128;-83
2022/02/27 04:17:59;;;;;;;13.10;2.53;;;0.50;73.30;;;;;;4996231;28;20030;-82
2022/02/27 04:20:24;;;;;;;12.32;3.65;;;0.50;73.30;;;;;;5012328;28;20029;-82
2022/02/27 04:22:50;;;;;;;9.70;2.97;;;0.60;73.20;;;;;;5012635;28;20021;-81
2022/02/27 04:25:16;;;;;;;12.38;2.50;;;0.60;73.00;;;;;;5012272;28;20030;-81
2022/02/27 04:27:41;;;;;;;12.05;3.17;;;0.70;72.90;;;;;;5012415;28;20080;-81
2022/02/27 04:30:07;;;;;;;11.75;2.90;;;0.70;72.70;;;;;;5012342;28;20054;-77
2022/02/27 04:32:33;;;;;;;15.27;3.03;;;0.70;72.50;;;;;;5011392;28;20045;-81
2022/02/27 04:34:58;;;;;;;9.75;3.58;;;0.70;72.60;;;;;;5012160;28;20375;-83
2022/02/27 04:37:24;;;;;;;8.93;3.40;;;0.70;72.50;;;;;;5012049;28;20036;-83
2022/02/27 04:39:50;;;;;;;15.18;3.08;;;0.60;72.50;;;;;;5012455;28;20414;-82
2022/02/27 04:42:16;;;;;;;7.15;2.50;;;0.60;72.60;;;;;;5012618;28;20110;-79
2022/02/27 04:44:41;;;;;;;10.32;3.33;;;0.60;72.50;;;;;;5028631;28;20033;-82
2022/02/27 04:47:08;;;;;;;10.75;3.17;;;0.70;72.50;;;;;;5028604;28;20466;-77
2022/02/27 04:49:34;;;;;;;14.57;3.28;;;0.60;72.70;;;;;;5012115;28;20060;-77
2022/02/27 04:51:59;;;;;;;10.30;3.42;;;0.50;73.00;;;;;;5012368;28;20054;-77
2022/02/27 04:54:25;;;;;;;9.55;2.92;;;0.50;73.20;;;;;;5012036;28;20450;-84
2022/02/27 04:56:51;;;;;;;13.40;3.53;;;0.40;73.50;;;;;;5761805;22;20094;-82
2022/02/27 04:59:17;;;;;;;9.23;3.45;;;0.40;73.70;;;;;;5055334;28;20028;-76
2022/02/27 05:01:43;;;;;;;11.10;3.20;;;0.50;73.70;;;;;;5073088;28;20110;-82
2022/02/27 05:04:08;;;;;;;14.88;3.92;;;0.50;73.70;;;;;;5073120;28;20033;-82
2022/02/27 05:06:34;;;;;;;9.95;3.15;;;0.50;73.80;;;;;;5073068;28;20029;-82
2022/02/27 05:08:59;;;;;;;10.50;3.03;;;0.50;73.70;;;;;;5072976;28;20024;-80
2022/02/27 05:11:25;;;;;;;10.65;3.00;;;0.50;73.60;;;;;;5072810;28;20060;-82
2022/02/27 05:13:51;;;;;;;13.68;4.25;;;0.50;73.50;;;;;;5072683;28;20035;-82
2022/02/27 05:16:16;;;;;;;17.33;4.32;;;0.50;73.60;;;;;;5054794;28;20051;-78
2022/02/27 05:18:42;;;;;;;11.85;3.63;;;0.50;73.90;;;;;;5072661;28;20322;-83
2022/02/27 05:23:33;;;;;;;14.45;3.70;;;0.30;74.20;;;;;;5077342;22;20528;-81
2022/02/27 05:25:58;;;;;;;13.60;4.35;;;0.10;75.00;;;;;;5058554;28;20028;-83
2022/02/27 05:28:25;;;;;;;12.35;4.57;;;0.10;75.20;;;;;;5076639;28;20028;-84
2022/02/27 05:30:52;;;;;;;14.25;3.92;;;0.10;75.40;;;;;;5076531;28;20025;-78
2022/02/27 05:33:18;;;;;;;13.45;5.10;;;0.10;75.70;;;;;;5076331;28;20025;-81
2022/02/27 05:35:43;;;;;;;16.08;4.38;;;0.10;75.60;;;;;;5076579;28;20023;-77
2022/02/27 05:38:09;;;;;;;10.73;4.15;;;0.20;75.60;;;;;;5076446;28;20028;-82
2022/02/27 05:40:34;;;;;;;12.38;4.15;;;0.00;75.60;;;;;;5058585;28;20028;-81
2022/02/27 05:43:00;;;;;;;19.77;5.25;;;0.00;75.90;;;;;;5058500;28;20060;-83
2022/02/27 05:45:26;;;;;;;17.73;5.20;;;0.10;76.10;;;;;;5078256;28;20361;-78
2022/02/27 05:47:51;;;;;;;10.45;3.42;;;0.10;76.30;;;;;;5082807;28;20039;-77
2022/02/27 05:50:17;;;;;;;13.98;4.65;;;0.20;76.00;;;;;;5089607;28;20024;-81
2022/02/27 05:52:43;;;;;;;10.90;4.45;;;0.20;75.50;;;;;;5089535;28;20040;-85
2022/02/27 05:55:09;;;;;;;13.23;4.68;;;0.20;75.20;;;;;;5076901;28;20107;-81
2022/02/27 05:57:34;;;;;;;14.15;4.35;;;0.10;75.30;;;;;;5079053;28;20037;-83
2022/02/27 06:00:00;;;;;;;17.90;4.28;;;0.10;75.40;;;;;;5077775;28;20074;-82
2022/02/27 06:02:26;;;;;;;14.43;4.15;;;0.10;75.60;;;;;;5060094;28;20024;-83
2022/02/27 06:04:52;;;;;;;14.00;4.22;;;0.10;75.70;;;;;;5081189;28;20028;-78
2022/02/27 06:07:17;;;;;;;9.30;3.58;;;0.00;75.90;;;;;;5082008;28;20027;-83
2022/02/27 06:09:43;;;;;;;14.73;4.28;;;0.00;76.20;;;;;;5058792;28;20025;-83
2022/02/27 06:12:08;;;;;;;12.93;4.40;;;0.00;76.30;;;;;;5075499;28;20082;-82
2022/02/27 06:14:34;;;;;;;13.02;4.18;;;0.00;76.20;;;;;;5075726;28;20028;-82
2022/02/27 06:17:00;;;;;;;17.33;5.03;;;0.00;76.10;;;;;;5057656;28;20047;-81
2022/02/27 06:19:25;;;;;;;10.65;4.20;;;0.00;76.00;;;;;;5075517;28;20074;-83
2022/02/27 06:21:51;;;;;;;11.32;4.43;;;-0.10;76.30;;;;;;5075491;28;20040;-84
2022/02/27 06:24:16;;;;;;;16.35;5.90;;;-0.10;76.40;;;;;;5075631;28;20024;-84
2022/02/27 06:26:42;;;;;;;17.52;4.57;;;-0.10;76.50;;;;;;5075401;28;20031;-82
2022/02/27 06:29:07;;;;;;;12.60;5.22;;;-0.10;76.70;;;;;;5075391;28;20024;-79
2022/02/27 06:31:33;;;;;;;10.52;4.40;;;0.00;76.80;;;;;;5075316;28;20104;-82
2022/02/27 06:33:58;;;;;;;12.13;4.32;;;0.00;76.40;;;;;;5075215;28;20029;-80
2022/02/27 06:36:24;;;;;;;14.35;4.80;;;0.10;76.50;;;;;;5074283;28;20025;-78
2022/02/27 06:38:50;;;;;;;10.88;4.30;;;0.10;76.20;;;;;;5075046;28;20074;-82
2022/02/27 06:41:16;;;;;;;11.80;4.78;;;0.10;76.10;;;;;;5074972;28;20032;-83
2022/02/27 06:43:42;;;;;;;13.68;5.63;;;0.20;75.80;;;;;;5075009;28;20021;-80
2022/02/27 06:46:08;;;;;;;17.23;5.70;;;0.20;75.60;;;;;;5074959;28;20031;-83
2022/02/27 06:48:34;;;;;;;14.90;5.80;;;0.10;75.50;;;;;;5075020;28;20103;-83
2022/02/27 06:50:59;;;;;;;17.98;6.30;;;0.10;75.50;;;;;;5056955;28;20035;-82
2022/02/27 06:53:25;;;;;;;14.15;4.93;;;0.10;75.50;;;;;;5074867;28;20083;-80
2022/02/27 06:55:51;;;;;;;12.70;4.85;;;0.10;75.50;;;;;;5074712;28;20031;-82
2022/02/27 06:58:18;;;;;;;13.23;5.85;;;0.30;75.40;;;;;;5057156;28;20055;-79
2022/02/27 07:00:44;;;;;;;17.48;6.68;;;0.40;75.00;;;;;;5075072;28;20020;-81
2022/02/27 07:03:10;;;;;;;20.52;7.15;;;0.50;74.60;;;;;;5056984;28;20035;-78
2022/02/27 07:05:36;;;;;;;14.60;7.28;;;0.60;74.20;;;;;;5056828;28;20025;-82
2022/02/27 07:08:02;;;;;;;16.90;7.75;;;0.70;73.80;;;;;;5074615;28;20534;-82
2022/02/27 07:10:28;;;;;;;25.65;8.95;;;0.70;73.50;;;;;;5074732;28;20079;-82
2022/02/27 07:12:53;;;;;;;20.70;9.00;;;0.70;73.50;;;;;;5074908;28;20043;-82
2022/02/27 07:15:19;;;;;;;17.88;8.40;;;0.80;73.30;;;;;;5074562;28;20032;-83
2022/02/27 07:17:45;;;;;;;20.58;10.07;;;0.80;73.10;;;;;;5074550;28;20032;-82
2022/02/27 07:20:10;;;;;;;23.92;9.27;;;0.90;73.20;;;;;;5074095;28;20024;-82
2022/02/27 07:22:37;;;;;;;17.23;8.05;;;0.90;72.80;;;;;;5074003;28;20063;-80
2022/02/27 07:25:07;;;;;;;18.55;6.72;;;1.00;72.60;;;;;;5074013;28;20400;-80
2022/02/27 07:27:34;;;;;;;15.48;5.30;;;1.10;72.40;;;;;;5056143;28;20055;-79
2022/02/27 07:30:00;;;;;;;8.52;4.93;;;1.10;72.00;;;;;;5073871;28;20106;-79
2022/02/27 07:32:26;;;;;;;10.98;4.82;;;1.20;72.00;;;;;;5073521;28;20476;-80
2022/02/27 07:34:51;;;;;;;13.77;4.47;;;1.30;71.80;;;;;;5055797;28;20043;-81
2022/02/27 07:37:17;;;;;;;17.50;5.20;;;1.20;71.70;;;;;;5073825;28;20464;-82
2022/02/27 07:39:43;;;;;;;12.20;4.00;;;1.20;72.00;;;;;;5056066;28;20035;-83
2022/02/27 07:42:08;;;;;;;10.65;4.32;;;1.40;72.40;;;;;;5073901;28;20458;-82
2022/02/27 07:44:34;;;;;;;11.95;4.43;;;1.40;71.70;;;;;;5074034;28;20028;-83
2022/02/27 07:47:00;;;;;;;8.07;3.70;;;1.50;71.40;;;;;;5073794;28;20472;-84
2022/02/27 07:49:26;;;;;;;8.75;4.13;;;1.50;70.70;;;;;;5073305;28;20020;-83
2022/02/27 07:51:53;;;;;;;14.30;4.85;;;1.70;70.60;;;;;;5073714;28;20395;-82
2022/02/27 07:54:18;;;;;;;7.78;3.70;;;1.80;70.70;;;;;;5073871;28;20039;-81
2022/02/27 07:56:45;;;;;;;8.02;3.88;;;1.90;68.40;;;;;;5073678;28;20021;-80
2022/02/27 07:59:10;;;;;;;12.50;4.20;;;2.00;67.60;;;;;;5073822;28;20032;-83
2022/02/27 08:01:36;;;;;;;10.32;4.18;;;2.20;67.40;;;;;;5073845;28;20383;-79
2022/02/27 08:04:02;;;;;;;10.88;4.07;;;2.20;67.70;;;;;;5073639;28;20028;-82
2022/02/27 08:06:27;;;;;;;12.73;5.72;;;2.40;67.40;;;;;;5073582;28;20025;-80
2022/02/27 08:08:53;;;;;;;7.43;2.85;;;2.60;66.70;;;;;;5073459;28;20060;-82
2022/02/27 08:11:19;;;;;;;4.57;2.22;;;2.70;61.60;;;;;;5074305;28;20029;-84
2022/02/27 08:13:44;;;;;;;6.30;3.28;;;2.90;65.50;;;;;;5073484;28;20472;-83
2022/02/27 08:16:10;;;;;;;3.85;2.40;;;3.50;72.20;;;;;;5073826;28;20023;-86
2022/02/27 08:18:37;;;;;;;6.13;2.28;;;3.90;62.60;;;;;;5074703;28;20028;-87
2022/02/27 08:21:03;;;;;;;7.00;2.53;;;4.30;64.90;;;;;;5073031;28;20024;-82
2022/02/27 08:23:29;;;;;;;6.57;2.60;;;4.90;60.00;;;;;;5073616;28;20080;-87
2022/02/27 08:25:55;;;;;;;5.63;2.40;;;5.20;55.60;;;;;;5056633;28;20017;-84
2022/02/27 08:28:23;;;;;;;4.43;2.15;;;5.30;52.50;;;;;;5073207;28;20023;-82
2022/02/27 08:30:49;;;;;;;6.15;2.33;;;5.60;52.80;;;;;;5073769;28;20021;-85
2022/02/27 08:33:14;;;;;;;16.98;3.55;;;6.10;51.20;;;;;;5073083;28;20041;-78
2022/02/27 08:35:41;;;;;;;10.10;2.90;;;6.50;54.30;;;;;;5072835;28;20105;-81
2022/02/27 08:38:07;;;;;;;5.97;2.10;;;6.80;48.10;;;;;;5071533;28;20115;-81
2022/02/27 08:40:33;;;;;;;6.57;2.55;;;7.00;47.00;;;;;;5072979;28;20017;-81
2022/02/27 08:43:01;;;;;;;2.47;1.70;;;7.00;44.60;;;;;;5072938;28;20025;-81
2022/02/27 08:45:27;;;;;;;8.27;2.53;;;7.00;44.30;;;;;;5073080;28;20020;-81
2022/02/27 08:47:54;;;;;;;4.93;2.35;;;6.80;45.20;;;;;;5073088;28;20126;-81
2022/02/27 08:50:21;;;;;;;5.57;2.42;;;6.80;47.00;;;;;;5073436;28;20107;-82
2022/02/27 08:52:46;;;;;;;6.88;2.58;;;6.80;44.60;;;;;;5081998;28;20036;-81
2022/02/27 08:55:15;;;;;;;9.30;3.00;;;6.90;45.00;;;;;;5091855;28;20035;-80
2022/02/27 08:57:42;;;;;;;5.55;1.83;;;6.90;43.30;;;;;;5075046;28;20027;-82
2022/02/27 09:00:10;;;;;;;4.57;2.38;;;7.00;48.00;;;;;;5075454;28;20017;-80
2022/02/27 09:02:36;;;;;;;8.45;2.60;;;7.10;43.60;;;;;;5076900;28;20100;-81
2022/02/27 09:05:02;;;;;;;6.30;1.92;;;7.20;42.10;;;;;;5076674;28;20021;-81
2022/02/27 09:07:28;;;;;;;5.05;2.10;;;7.20;40.80;;;;;;5058702;28;20158;-79
2022/02/27 09:09:53;;;;;;;4.32;2.30;;;7.20;41.30;;;;;;5076741;28;20041;-80
2022/02/27 09:12:19;;;;;;;5.47;2.38;;;7.10;40.70;;;;;;5058700;28;20064;-82
2022/02/27 09:14:45;;;;;;;5.38;2.17;;;7.00;39.20;;;;;;5076457;28;20490;-81
2022/02/27 09:17:14;;;;;;;7.70;2.42;;;6.80;39.40;;;;;;5076603;28;20024;-81
2022/02/27 09:19:40;;;;;;;7.00;2.17;;;6.60;40.40;;;;;;5076474;28;20028;-83
2022/02/27 09:22:06;;;;;;;3.97;2.40;;;6.50;40.10;;;;;;5059672;28;20480;-84
2022/02/27 09:24:32;;;;;;;7.00;2.58;;;6.40;40.80;;;;;;5059033;28;20653;-82
2022/02/27 09:26:58;;;;;;;5.57;2.58;;;6.20;40.00;;;;;;5077080;28;20467;-82
2022/02/27 09:29:24;;;;;;;5.30;2.53;;;6.00;39.70;;;;;;5077188;28;20048;-82
2022/02/27 09:31:50;;;;;;;5.57;2.40;;;6.00;40.70;;;;;;5076283;28;20059;-82
2022/02/27 09:34:15;;;;;;;7.07;2.38;;;6.10;40.50;;;;;;5058325;28;20472;-81
2022/02/27 09:36:41;;;;;;;6.00;2.50;;;6.10;40.80;;;;;;5076244;28;20072;-83
2022/02/27 09:39:07;;;;;;;6.45;2.53;;;6.10;40.40;;;;;;5077370;28;20021;-82
2022/02/27 09:41:32;;;;;;;6.00;2.38;;;6.00;40.20;;;;;;5084363;28;20480;-82
2022/02/27 09:44:01;;;;;;;5.45;2.22;;;6.10;41.60;;;;;;5080556;28;20028;-81
2022/02/27 09:46:28;;;;;;;9.88;3.08;;;6.30;40.00;;;;;;5075303;28;20074;-82
2022/02/27 09:48:56;;;;;;;6.50;2.70;;;6.40;39.60;;;;;;5076474;28;20024;-82
2022/02/27 09:51:21;;;;;;;6.93;2.50;;;6.40;39.00;;;;;;5076039;28;20051;-85
2022/02/27 09:53:47;;;;;;;4.10;2.35;;;6.50;39.10;;;;;;5075830;28;20075;-82
2022/02/27 09:56:13;;;;;;;3.92;2.08;;;6.70;38.60;;;;;;5058064;28;20031;-83
2022/02/27 09:58:39;;;;;;;6.70;2.22;;;6.70;37.50;;;;;;5075924;28;20475;-83
2022/02/27 10:01:05;;;;;;;3.42;2.13;;;6.70;38.10;;;;;;5075997;28;20032;-83
2022/02/27 10:03:32;;;;;;;8.13;2.80;;;6.80;38.30;;;;;;5075935;28;20031;-83
2022/02/27 10:06:05;;;;;;;3.78;2.30;;;6.90;37.60;;;;;;5075673;28;20024;-83
2022/02/27 10:08:44;;;;;;;5.90;2.00;;;7.00;37.20;;;;;;5075536;28;20108;-84
2022/02/27 10:11:16;;;;;;;3.50;1.63;;;7.10;36.20;;;;;;5074757;28;20024;-84
2022/02/27 10:13:51;;;;;;;3.80;1.90;;;7.10;34.60;;;;;;5075590;28;20040;-83
2022/02/27 10:16:28;;;;;;;6.20;2.13;;;6.90;34.10;;;;;;5075477;28;20070;-83
2022/02/27 10:18:59;;;;;;;4.90;2.10;;;7.10;34.50;;;;;;5075337;28;20029;-83
2022/02/27 10:21:34;;;;;;;3.60;1.90;;;7.30;34.60;;;;;;5075324;28;20051;-84
2022/02/27 10:24:01;;;;;;;;;;;7.30;34.60;;;;;;5075741;28;20476;-82
2022/02/27 10:26:29;;;;;;;3.40;1.65;;;7.40;33.30;;;;;;5075046;28;19908;-81
2022/02/27 10:29:14;;;;;;;4.90;1.60;;;7.30;33.30;;;;;;5075113;28;20031;-84
2022/02/27 10:31:56;;;;;;;3.83;2.05;;;7.50;33.70;;;;;;5075163;28;20082;-82
2022/02/27 10:34:30;;;;;;;4.05;1.95;;;7.30;32.70;;;;;;5075024;28;20090;-82
2022/02/27 10:37:04;;;;;;;4.47;1.98;;;7.50;33.40;;;;;;5075424;28;20358;-82
2022/02/27 10:39:33;;;;;;;5.72;2.45;;;7.70;33.80;;;;;;5073767;28;20101;-76
2022/02/27 10:42:06;;;;;;;5.30;2.08;;;7.80;33.30;;;;;;5075037;28;20095;-83
2022/02/27 10:44:32;;;;;;;6.20;2.03;;;7.90;33.20;;;;;;5074777;28;20019;-83
2022/02/27 10:47:15;;;;;;;3.03;2.22;;;8.00;33.60;;;;;;5074880;28;20024;-84
2022/02/27 10:49:41;;;;;;;2.63;1.80;;;8.20;33.70;;;;;;5074804;28;20055;-85
2022/02/27 10:52:11;;;;;;;5.10;1.95;;;8.30;33.60;;;;;;5074865;28;20105;-83
2022/02/27 10:54:40;;;;;;;3.70;1.67;;;8.30;32.60;;;;;;5074813;28;20082;-83
2022/02/27 10:57:10;;;;;;;5.10;2.28;;;8.50;32.40;;;;;;5074773;28;20027;-83
2022/02/27 10:59:38;;;;;;;3.65;2.25;;;8.70;32.10;;;;;;5074609;28;20090;-82
2022/02/27 11:02:05;;;;;;;7.43;2.67;;;8.60;31.10;;;;;;5074452;28;20024;-82
2022/02/27 11:04:33;;;;;;;3.78;2.10;;;8.40;30.90;;;;;;5074306;28;20025;-83
2022/02/27 11:06:58;;;;;;;4.57;2.15;;;8.30;31.60;;;;;;5074226;28;20480;-83
2022/02/27 11:09:24;;;;;;;6.15;2.33;;;8.40;32.00;;;;;;5074256;28;20032;-82
2022/02/27 11:11:50;;;;;;;3.97;2.08;;;8.60;31.70;;;;;;5074061;28;20047;-80
2022/02/27 11:14:16;;;;;;;4.63;2.38;;;8.60;31.30;;;;;;5074212;28;20028;-79
2022/02/27 11:16:42;;;;;;;7.00;2.20;;;8.80;30.70;;;;;;5074224;28;20043;-76
2022/02/27 11:19:08;;;;;;;5.25;2.60;;;8.70;31.20;;;;;;5074270;28;20017;-81
2022/02/27 11:24:36;;;;;;;3.13;2.20;;;9.00;30.60;;;;;;5387798;22;20060;-82
2022/02/27 11:27:05;;;;;;;4.40;2.58;;;9.20;30.80;;;;;;4996754;28;20029;-83
2022/02/27 11:29:31;;;;;;;3.40;2.33;;;9.60;31.20;;;;;;4996519;28;20061;-83
2022/02/27 11:31:58;;;;;;;5.85;2.42;;;9.80;31.70;;;;;;5014158;28;20517;-82
2022/02/27 11:34:26;;;;;;;5.78;2.25;;;10.20;31.80;;;;;;4996386;28;20133;-79
2022/02/27 11:36:53;;;;;;;4.35;2.58;;;10.60;31.60;;;;;;5014000;28;20097;-81
2022/02/27 11:42:03;;;;;;;4.38;2.25;;;11.00;29.50;;;;;;5014198;28;20033;-82
2022/02/27 11:44:37;;;;;;;3.08;2.38;;;11.00;27.60;;;;;;5014178;28;20045;-82
2022/02/27 11:47:08;;;;;;;4.53;2.65;;;10.90;26.50;;;;;;5014076;28;20021;-81
2022/02/27 11:49:39;;;;;;;42.38;13.73;;;11.10;27.60;;;;;;5014086;28;20152;-82
2022/02/27 11:52:15;;;;;;;12.00;5.03;;;11.10;28.20;;;;;;5021433;22;20056;-77
2022/02/27 11:54:55;;;;;;;6.03;3.17;;;11.40;28.60;;;;;;5052973;23;20123;-82
2022/02/27 11:57:25;;;;;;;3.30;2.33;;;11.70;28.10;;;;;;5012912;28;20046;-81
2022/02/27 11:59:54;;;;;;;3.83;2.63;;;11.90;27.80;;;;;;5000757;28;20038;-77
2022/02/27 12:02:38;;;;;;;4.82;2.60;;;12.20;28.20;;;;;;5014397;28;20113;-81
2022/02/27 12:05:13;;;;;;;6.88;2.60;;;12.20;27.90;;;;;;4994501;28;20479;-83
2022/02/27 12:08:04;;;;;;;4.13;2.63;;;12.30;27.10;;;;;;4994344;28;20018;-83
2022/02/27 12:10:41;;;;;;;4.85;2.50;;;12.40;28.40;;;;;;4991273;28;20069;-79
2022/02/27 12:13:18;;;;;;;7.75;2.83;;;12.50;27.00;;;;;;4994412;28;20030;-85
2022/02/27 12:15:45;;;;;;;4.53;2.80;;;12.70;26.60;;;;;;4994157;28;20037;-81
2022/02/27 12:18:16;;;;;;;5.30;2.70;;;12.80;26.70;;;;;;4994193;28;20027;-82
2022/02/27 12:20:53;;;;;;;4.60;2.45;;;13.00;26.60;;;;;;4993948;28;20026;-83
2022/02/27 12:23:29;;;;;;;18.08;4.43;;;13.20;26.30;;;;;;5008946;28;20088;-83
2022/02/27 12:25:55;;;;;;;;;;;13.20;25.10;;;;;;5009783;28;20033;-86
2022/02/27 12:28:59;;;;;;;5.70;2.50;;;13.20;24.60;;;;;;4994024;28;19906;-84
2022/02/27 12:31:29;;;;;;;3.45;2.22;;;13.10;24.10;;;;;;4972177;28;20050;-79
2022/02/27 12:33:57;;;;;;;4.55;2.58;;;13.10;23.10;;;;;;4971665;28;20088;-77
2022/02/27 12:36:38;;;;;;;3.88;2.20;;;13.00;23.10;;;;;;4983548;28;20061;-79
2022/02/27 12:39:10;;;;;;;4.28;2.05;;;12.80;23.10;;;;;;4994331;28;20184;-79
2022/02/27 12:41:42;;;;;;;2.33;1.83;;;12.80;23.50;;;;;;4993675;28;20037;-82
2022/02/27 12:44:10;;;;;;;6.65;2.30;;;12.80;23.00;;;;;;4994107;28;20026;-82
2022/02/27 12:46:36;;;;;;;3.83;2.40;;;12.90;23.00;;;;;;4995715;28;20050;-83
2022/02/27 12:51:47;;;;;;;4.57;2.30;;;12.40;23.00;;;;;;4994715;28;20530;-82
2022/02/27 12:54:15;;;;;;;2.08;1.85;;;12.40;22.80;;;;;;4993935;28;20035;-82
2022/02/27 12:56:41;;;;;;;3.25;1.80;;;12.60;23.30;;;;;;4994871;28;20037;-83
2022/02/27 12:59:08;;;;;;;3.60;2.35;;;12.70;21.70;;;;;;5002724;28;20030;-81
2022/02/27 13:01:37;;;;;;;3.28;2.10;;;12.90;21.60;;;;;;5010531;28;20031;-81